Bellevue, WA

2:43 AM PST on February 26, 2017 (GMT -0800)
Northwest Bellevue | | Change Station
Active Advisory: Winter Weather Advisory

Elev 0 ft 47.62 °N, 122.21 °W | Updated 2 minutes ago

Ice Pellets
Ice Pellets
36.0 °F
Feels Like 33 °F
N
3.7
Wind Variable Wind from ESE
Gusts 11.2 mph

Today
High -- | Low -- °F
--% Chance of Precip.
Yesterday
High -- | Low -- °F
Precip. -- in
Pressure 29.83 in
Visibility 9.0 miles
Clouds Few 1200 ft
Mostly Cloudy 2300 ft
Overcast 2700 ft
Windchill 33 °F
Dew Point 33 °F
Humidity 89%
Rainfall 0.05 in
Snow Depth Not available.
6:54 AM 5:49 PM
Waning Crescent, 0% visible
METAR KBFI 260953Z 15013KT 9SM -RA FEW012 BKN023 OVC027 03/03 A2983 RMK AO2 SLP102 P0003 T00280028 $
Pressure 29.83 in
Visibility 9.0 miles
Clouds Few 1200 ft
Mostly Cloudy 2300 ft
Overcast 2700 ft
Windchill 33 °F
Dew Point 33 °F
Humidity 89%
Rainfall 0.05 in
Snow Depth Not available.
6:54 AM 5:49 PM
Waning Crescent, 0% visible
METAR KBFI 260953Z 15013KT 9SM -RA FEW012 BKN023 OVC027 03/03 A2983 RMK AO2 SLP102 P0003 T00280028 $

Get Your Daily Forecast Email!

Thanks for signing up!

Be on the lookout for a verification email in your inbox.

You'll start receiving the daily forecast at 8 AM.

×

10-Day Weather Forecast

Almanac

Astronomy

Feb. 26, 2017 Rise Set
Actual Time
Civil Twilight
Nautical Twilight
Astronomical Twilight
Moon
Length of Visible Light
Length of Day
Tomorrow will be .
, % of the Moon is Illuminated

Today's Extremes

State Highs State Lows

Community

WunderPhotos

Upload Photos

1,962,540 photos uploaded!

WunderBlog® & News

Nearby

Air Quality

  Air Quality AQ Index Pollutant
Not available.

Snow Depth

Station Depth Elevation

Earthquake Activity

City Distance Mag. Time & Date
Minimum magnitude displayed is 2.5.

Coastal Water Temperatures

Place Temperature

Stations

Nearby Weather Stations

Station Location Temp. Windchill Dew Point Humidity Wind Precip. Elev Updated Type
                   

Watches & Warnings

Winter Weather Advisory
Issued: 10:23 PM PST Feb. 25, 2017 – National Weather Service

... Winter Weather Advisory remains in effect until 10 am PST
Sunday...

* some affected locations... Seattle, Tacoma, Everett, Bremerton,
Bellevue, Olympia, Bellingham, Friday Harbor.

* Snow accumulations... 1 inch late tonight, then another 1 or 2
inches Sunday morning. Total accumulation 1 to 3 inches. Areas
near sea level will receive little to no accumulation. Higher
hills and inland areas may get up to three inches.

* Snow level... falling to near 300 feet by late tonight. Rising
to 1000 feet on Sunday afternoon.

* Main impact... snow will cause slippery and hazardous driving
conditions. Slow down and expect delays if traveling across
the Cascades.

Precautionary/preparedness actions...

A Winter Weather Advisory for snow means that periods of snow
will cause primarily travel difficulties. Be prepared for snow
covered roads and limited visibilities, and use caution while
driving.